sensor_id;sensor_type;location;lat;lon;timestamp;temperature;humidity
49855;DHT22;35752;52.164;21.244;2022-07-18T00:01:31;12.20;99.90
49855;DHT22;35752;52.164;21.244;2022-07-18T00:03:58;12.10;99.90
49855;DHT22;35752;52.164;21.244;2022-07-18T00:06:24;12.10;99.90
49855;DHT22;35752;52.164;21.244;2022-07-18T00:08:50;12.10;99.90
49855;DHT22;35752;52.164;21.244;2022-07-18T00:11:16;12.00;99.90
49855;DHT22;35752;52.164;21.244;2022-07-18T00:13:41;12.00;99.90
49855;DHT22;35752;52.164;21.244;2022-07-18T00:16:07;12.00;99.90
49855;DHT22;35752;52.164;21.244;2022-07-18T00:18:33;11.90;99.90
49855;DHT22;35752;52.164;21.244;2022-07-18T00:20:58;11.90;99.90
49855;DHT22;35752;52.164;21.244;2022-07-18T00:23:24;11.90;99.90
49855;DHT22;35752;52.164;21.244;2022-07-18T00:25:50;11.90;99.90
49855;DHT22;35752;52.164;21.244;2022-07-18T00:28:16;11.90;99.90
49855;DHT22;35752;52.164;21.244;2022-07-18T00:30:42;11.90;99.90
49855;DHT22;35752;52.164;21.244;2022-07-18T00:33:08;11.80;99.90
49855;DHT22;35752;52.164;21.244;2022-07-18T00:35:33;11.80;99.90
49855;DHT22;35752;52.164;21.244;2022-07-18T00:38:00;11.80;99.90
49855;DHT22;35752;52.164;21.244;2022-07-18T00:40:28;11.80;99.90
49855;DHT22;35752;52.164;21.244;2022-07-18T00:42:54;11.80;99.90
49855;DHT22;35752;52.164;21.244;2022-07-18T00:45:19;11.70;99.90
49855;DHT22;35752;52.164;21.244;2022-07-18T00:47:45;11.70;99.90
49855;DHT22;35752;52.164;21.244;2022-07-18T00:50:11;11.70;99.90
49855;DHT22;35752;52.164;21.244;2022-07-18T00:52:37;11.60;99.90
49855;DHT22;35752;52.164;21.244;2022-07-18T00:55:06;11.60;99.90
49855;DHT22;35752;52.164;21.244;2022-07-18T00:57:32;11.60;99.90
49855;DHT22;35752;52.164;21.244;2022-07-18T00:59:58;11.60;99.90
49855;DHT22;35752;52.164;21.244;2022-07-18T01:02:42;11.60;99.90
49855;DHT22;35752;52.164;21.244;2022-07-18T01:05:08;11.50;99.90
49855;DHT22;35752;52.164;21.244;2022-07-18T01:07:35;11.50;99.90
49855;DHT22;35752;52.164;21.244;2022-07-18T01:10:04;11.50;99.90
49855;DHT22;35752;52.164;21.244;2022-07-18T01:12:30;11.50;99.90
49855;DHT22;35752;52.164;21.244;2022-07-18T01:14:57;11.50;99.90
49855;DHT22;35752;52.164;21.244;2022-07-18T01:17:24;11.50;99.90
49855;DHT22;35752;52.164;21.244;2022-07-18T01:19:49;11.50;99.90
49855;DHT22;35752;52.164;21.244;2022-07-18T01:22:18;11.50;99.90
49855;DHT22;35752;52.164;21.244;2022-07-18T01:24:44;11.50;99.90
49855;DHT22;35752;52.164;21.244;2022-07-18T01:27:15;11.50;99.90
49855;DHT22;35752;52.164;21.244;2022-07-18T01:29:41;11.50;99.90
49855;DHT22;35752;52.164;21.244;2022-07-18T01:32:08;11.50;99.90
49855;DHT22;35752;52.164;21.244;2022-07-18T01:34:35;11.50;99.90
49855;DHT22;35752;52.164;21.244;2022-07-18T01:37:01;11.40;99.90
49855;DHT22;35752;52.164;21.244;2022-07-18T01:39:27;11.40;99.90
49855;DHT22;35752;52.164;21.244;2022-07-18T01:42:11;11.40;99.90
49855;DHT22;35752;52.164;21.244;2022-07-18T01:44:38;11.40;99.90
49855;DHT22;35752;52.164;21.244;2022-07-18T01:47:05;11.40;99.90
49855;DHT22;35752;52.164;21.244;2022-07-18T01:49:32;11.40;99.90
49855;DHT22;35752;52.164;21.244;2022-07-18T01:51:58;11.40;99.90
49855;DHT22;35752;52.164;21.244;2022-07-18T01:54:26;11.30;99.90
49855;DHT22;35752;52.164;21.244;2022-07-18T01:56:52;11.30;99.90
49855;DHT22;35752;52.164;21.244;2022-07-18T01:59:18;11.30;99.90
49855;DHT22;35752;52.164;21.244;2022-07-18T02:01:44;11.30;99.90
49855;DHT22;35752;52.164;21.244;2022-07-18T02:04:11;11.30;99.90
49855;DHT22;35752;52.164;21.244;2022-07-18T02:06:37;11.30;99.90
49855;DHT22;35752;52.164;21.244;2022-07-18T02:09:03;11.20;99.90
49855;DHT22;35752;52.164;21.244;2022-07-18T02:11:29;11.20;99.90
49855;DHT22;35752;52.164;21.244;2022-07-18T02:13:55;11.20;99.90
49855;DHT22;35752;52.164;21.244;2022-07-18T02:16:21;11.20;99.90
49855;DHT22;35752;52.164;21.244;2022-07-18T02:18:46;11.20;99.90
49855;DHT22;35752;52.164;21.244;2022-07-18T02:21:12;11.20;99.90
49855;DHT22;35752;52.164;21.244;2022-07-18T02:23:39;11.20;99.90
49855;DHT22;35752;52.164;21.244;2022-07-18T02:26:06;11.10;99.90
49855;DHT22;35752;52.164;21.244;2022-07-18T02:28:33;11.10;99.90
49855;DHT22;35752;52.164;21.244;2022-07-18T02:30:59;11.10;99.90
49855;DHT22;35752;52.164;21.244;2022-07-18T02:33:24;11.10;99.90
49855;DHT22;35752;52.164;21.244;2022-07-18T02:35:50;11.10;99.90
49855;DHT22;35752;52.164;21.244;2022-07-18T02:38:16;11.00;99.90
49855;DHT22;35752;52.164;21.244;2022-07-18T02:40:42;11.00;99.90
49855;DHT22;35752;52.164;21.244;2022-07-18T02:43:08;11.00;99.90
49855;DHT22;35752;52.164;21.244;2022-07-18T02:45:34;11.00;99.90
49855;DHT22;35752;52.164;21.244;2022-07-18T02:47:59;11.00;99.90
49855;DHT22;35752;52.164;21.244;2022-07-18T02:50:25;11.00;99.90
49855;DHT22;35752;52.164;21.244;2022-07-18T02:52:51;11.10;99.90
49855;DHT22;35752;52.164;21.244;2022-07-18T02:55:17;11.00;99.90
49855;DHT22;35752;52.164;21.244;2022-07-18T02:57:43;11.00;99.90
49855;DHT22;35752;52.164;21.244;2022-07-18T03:00:12;11.00;99.90
49855;DHT22;35752;52.164;21.244;2022-07-18T03:02:38;11.00;99.90
49855;DHT22;35752;52.164;21.244;2022-07-18T03:05:05;11.00;99.90
49855;DHT22;35752;52.164;21.244;2022-07-18T03:07:31;11.00;99.90
49855;DHT22;35752;52.164;21.244;2022-07-18T03:09:57;11.00;99.90
49855;DHT22;35752;52.164;21.244;2022-07-18T03:12:23;11.00;99.90
49855;DHT22;35752;52.164;21.244;2022-07-18T03:14:48;11.00;99.90
49855;DHT22;35752;52.164;21.244;2022-07-18T03:17:14;11.00;99.90
49855;DHT22;35752;52.164;21.244;2022-07-18T03:19:40;11.00;99.90
49855;DHT22;35752;52.164;21.244;2022-07-18T03:22:06;11.10;99.90
49855;DHT22;35752;52.164;21.244;2022-07-18T03:24:32;11.10;99.90
49855;DHT22;35752;52.164;21.244;2022-07-18T03:26:58;11.10;99.90
49855;DHT22;35752;52.164;21.244;2022-07-18T03:29:24;11.20;99.90
49855;DHT22;35752;52.164;21.244;2022-07-18T03:31:50;11.30;99.90
49855;DHT22;35752;52.164;21.244;2022-07-18T03:34:16;11.30;99.90
49855;DHT22;35752;52.164;21.244;2022-07-18T03:36:42;11.40;99.90
49855;DHT22;35752;52.164;21.244;2022-07-18T03:39:09;11.50;99.90
49855;DHT22;35752;52.164;21.244;2022-07-18T03:41:35;11.60;99.90
49855;DHT22;35752;52.164;21.244;2022-07-18T03:44:01;11.70;99.90
49855;DHT22;35752;52.164;21.244;2022-07-18T03:46:27;11.90;99.90
49855;DHT22;35752;52.164;21.244;2022-07-18T03:48:53;12.10;99.90
49855;DHT22;35752;52.164;21.244;2022-07-18T03:51:18;12.10;99.90
49855;DHT22;35752;52.164;21.244;2022-07-18T03:53:44;12.20;99.90
49855;DHT22;35752;52.164;21.244;2022-07-18T03:56:10;12.30;99.90
49855;DHT22;35752;52.164;21.244;2022-07-18T03:58:36;12.40;99.90
49855;DHT22;35752;52.164;21.244;2022-07-18T04:01:02;12.40;99.90
49855;DHT22;35752;52.164;21.244;2022-07-18T04:03:27;12.60;99.90
49855;DHT22;35752;52.164;21.244;2022-07-18T04:05:53;12.80;99.90
49855;DHT22;35752;52.164;21.244;2022-07-18T04:08:19;13.10;99.90
49855;DHT22;35752;52.164;21.244;2022-07-18T04:10:44;13.40;99.90
49855;DHT22;35752;52.164;21.244;2022-07-18T04:13:11;13.70;99.90
49855;DHT22;35752;52.164;21.244;2022-07-18T04:15:37;14.70;99.90
49855;DHT22;35752;52.164;21.244;2022-07-18T04:18:04;15.50;99.90
49855;DHT22;35752;52.164;21.244;2022-07-18T04:20:30;16.00;99.90
49855;DHT22;35752;52.164;21.244;2022-07-18T04:23:02;16.40;99.90
49855;DHT22;35752;52.164;21.244;2022-07-18T04:25:33;16.80;99.90
49855;DHT22;35752;52.164;21.244;2022-07-18T04:27:59;16.90;99.90
49855;DHT22;35752;52.164;21.244;2022-07-18T04:30:26;17.00;99.90
49855;DHT22;35752;52.164;21.244;2022-07-18T04:32:53;16.90;99.90
49855;DHT22;35752;52.164;21.244;2022-07-18T04:35:19;16.90;99.90
49855;DHT22;35752;52.164;21.244;2022-07-18T04:37:44;16.80;99.90
49855;DHT22;35752;52.164;21.244;2022-07-18T04:40:11;16.80;99.90
49855;DHT22;35752;52.164;21.244;2022-07-18T04:42:37;16.60;99.90
49855;DHT22;35752;52.164;21.244;2022-07-18T04:45:04;16.50;99.90
49855;DHT22;35752;52.164;21.244;2022-07-18T04:47:30;16.70;99.90
49855;DHT22;35752;52.164;21.244;2022-07-18T04:49:56;16.80;99.90
49855;DHT22;35752;52.164;21.244;2022-07-18T04:52:23;17.10;99.90
49855;DHT22;35752;52.164;21.244;2022-07-18T04:54:49;17.30;99.90
49855;DHT22;35752;52.164;21.244;2022-07-18T04:57:16;17.20;99.90
49855;DHT22;35752;52.164;21.244;2022-07-18T04:59:42;17.10;99.90
49855;DHT22;35752;52.164;21.244;2022-07-18T05:02:09;17.00;99.90
49855;DHT22;35752;52.164;21.244;2022-07-18T05:04:36;16.90;99.90
49855;DHT22;35752;52.164;21.244;2022-07-18T05:07:01;16.80;99.90
49855;DHT22;35752;52.164;21.244;2022-07-18T05:09:27;16.70;99.90
49855;DHT22;35752;52.164;21.244;2022-07-18T05:11:54;16.60;99.90
49855;DHT22;35752;52.164;21.244;2022-07-18T05:14:20;16.60;99.90
49855;DHT22;35752;52.164;21.244;2022-07-18T05:16:47;16.50;99.90
49855;DHT22;35752;52.164;21.244;2022-07-18T05:19:13;16.50;99.90
49855;DHT22;35752;52.164;21.244;2022-07-18T05:21:40;16.50;99.90
49855;DHT22;35752;52.164;21.244;2022-07-18T05:24:06;16.60;99.90
49855;DHT22;35752;52.164;21.244;2022-07-18T05:26:33;16.70;99.90
49855;DHT22;35752;52.164;21.244;2022-07-18T05:28:58;16.70;99.90
49855;DHT22;35752;52.164;21.244;2022-07-18T05:31:24;16.70;99.90
49855;DHT22;35752;52.164;21.244;2022-07-18T05:33:50;16.70;99.90
49855;DHT22;35752;52.164;21.244;2022-07-18T05:36:15;16.70;99.90
49855;DHT22;35752;52.164;21.244;2022-07-18T05:38:41;16.80;99.90
49855;DHT22;35752;52.164;21.244;2022-07-18T05:41:07;16.90;99.90
49855;DHT22;35752;52.164;21.244;2022-07-18T05:43:32;16.90;99.90
49855;DHT22;35752;52.164;21.244;2022-07-18T05:45:58;17.10;99.90
49855;DHT22;35752;52.164;21.244;2022-07-18T05:48:24;17.10;99.90
49855;DHT22;35752;52.164;21.244;2022-07-18T05:50:49;17.20;99.90
49855;DHT22;35752;52.164;21.244;2022-07-18T05:53:15;17.30;99.90
49855;DHT22;35752;52.164;21.244;2022-07-18T05:55:41;17.50;99.90
49855;DHT22;35752;52.164;21.244;2022-07-18T05:58:06;17.60;99.90
49855;DHT22;35752;52.164;21.244;2022-07-18T06:00:32;17.80;99.90
49855;DHT22;35752;52.164;21.244;2022-07-18T06:02:58;17.80;99.90
49855;DHT22;35752;52.164;21.244;2022-07-18T06:05:23;17.90;99.90
49855;DHT22;35752;52.164;21.244;2022-07-18T06:07:49;18.00;99.90
49855;DHT22;35752;52.164;21.244;2022-07-18T06:10:15;18.10;99.90
49855;DHT22;35752;52.164;21.244;2022-07-18T06:12:41;18.20;99.90
49855;DHT22;35752;52.164;21.244;2022-07-18T06:15:07;18.30;99.90
49855;DHT22;35752;52.164;21.244;2022-07-18T06:17:33;18.40;99.90
49855;DHT22;35752;52.164;21.244;2022-07-18T06:19:59;18.60;99.90
49855;DHT22;35752;52.164;21.244;2022-07-18T06:22:25;18.70;99.90
49855;DHT22;35752;52.164;21.244;2022-07-18T06:24:51;18.70;99.90
49855;DHT22;35752;52.164;21.244;2022-07-18T06:27:17;18.80;99.90
49855;DHT22;35752;52.164;21.244;2022-07-18T06:29:43;18.90;99.90
49855;DHT22;35752;52.164;21.244;2022-07-18T06:32:09;19.00;99.90
49855;DHT22;35752;52.164;21.244;2022-07-18T06:34:34;19.00;99.90
49855;DHT22;35752;52.164;21.244;2022-07-18T06:37:00;19.20;99.90
49855;DHT22;35752;52.164;21.244;2022-07-18T06:39:26;19.50;99.90
49855;DHT22;35752;52.164;21.244;2022-07-18T06:41:51;19.60;99.90
49855;DHT22;35752;52.164;21.244;2022-07-18T06:44:17;19.50;99.90
49855;DHT22;35752;52.164;21.244;2022-07-18T06:46:43;19.50;99.90
49855;DHT22;35752;52.164;21.244;2022-07-18T06:49:09;19.50;99.90
49855;DHT22;35752;52.164;21.244;2022-07-18T06:51:35;19.50;99.90
49855;DHT22;35752;52.164;21.244;2022-07-18T06:54:01;19.60;99.90
49855;DHT22;35752;52.164;21.244;2022-07-18T06:56:27;19.60;99.90
49855;DHT22;35752;52.164;21.244;2022-07-18T06:58:53;19.70;99.90
49855;DHT22;35752;52.164;21.244;2022-07-18T07:01:20;19.70;99.90
49855;DHT22;35752;52.164;21.244;2022-07-18T07:03:46;19.60;99.90
49855;DHT22;35752;52.164;21.244;2022-07-18T07:06:12;19.70;99.90
49855;DHT22;35752;52.164;21.244;2022-07-18T07:08:38;19.70;99.90
49855;DHT22;35752;52.164;21.244;2022-07-18T07:11:04;19.70;99.90
49855;DHT22;35752;52.164;21.244;2022-07-18T07:13:31;19.70;99.90
49855;DHT22;35752;52.164;21.244;2022-07-18T07:15:57;19.80;99.90
49855;DHT22;35752;52.164;21.244;2022-07-18T07:18:22;19.70;99.90
49855;DHT22;35752;52.164;21.244;2022-07-18T07:20:48;19.80;99.90
49855;DHT22;35752;52.164;21.244;2022-07-18T07:23:14;19.70;99.90
49855;DHT22;35752;52.164;21.244;2022-07-18T07:25:40;19.70;99.90
49855;DHT22;35752;52.164;21.244;2022-07-18T07:28:06;19.70;99.90
49855;DHT22;35752;52.164;21.244;2022-07-18T07:30:33;19.80;99.90
49855;DHT22;35752;52.164;21.244;2022-07-18T07:32:59;20.00;99.90
49855;DHT22;35752;52.164;21.244;2022-07-18T07:35:25;20.10;99.90
49855;DHT22;35752;52.164;21.244;2022-07-18T07:37:56;20.10;99.90
49855;DHT22;35752;52.164;21.244;2022-07-18T07:40:24;20.20;99.90
49855;DHT22;35752;52.164;21.244;2022-07-18T07:42:51;20.10;99.90
49855;DHT22;35752;52.164;21.244;2022-07-18T07:45:18;20.10;99.90
49855;DHT22;35752;52.164;21.244;2022-07-18T07:47:44;20.10;99.90
49855;DHT22;35752;52.164;21.244;2022-07-18T07:50:11;20.10;99.90
49855;DHT22;35752;52.164;21.244;2022-07-18T07:52:38;20.00;99.90
49855;DHT22;35752;52.164;21.244;2022-07-18T07:55:07;20.00;99.90
49855;DHT22;35752;52.164;21.244;2022-07-18T07:57:33;19.80;99.90
49855;DHT22;35752;52.164;21.244;2022-07-18T08:00:03;19.80;99.90
49855;DHT22;35752;52.164;21.244;2022-07-18T08:02:28;19.70;99.90
49855;DHT22;35752;52.164;21.244;2022-07-18T08:04:54;19.70;99.90
49855;DHT22;35752;52.164;21.244;2022-07-18T08:07:20;19.80;99.90
49855;DHT22;35752;52.164;21.244;2022-07-18T08:09:46;19.90;99.90
49855;DHT22;35752;52.164;21.244;2022-07-18T08:12:12;19.90;99.90
49855;DHT22;35752;52.164;21.244;2022-07-18T08:14:37;19.90;99.90
49855;DHT22;35752;52.164;21.244;2022-07-18T08:17:05;20.00;99.90
49855;DHT22;35752;52.164;21.244;2022-07-18T08:19:31;20.00;99.90
49855;DHT22;35752;52.164;21.244;2022-07-18T08:21:57;20.00;99.90
49855;DHT22;35752;52.164;21.244;2022-07-18T08:24:22;20.00;99.90
49855;DHT22;35752;52.164;21.244;2022-07-18T08:26:48;20.00;99.90
49855;DHT22;35752;52.164;21.244;2022-07-18T08:29:14;20.10;99.90
49855;DHT22;35752;52.164;21.244;2022-07-18T08:31:40;20.20;99.90
49855;DHT22;35752;52.164;21.244;2022-07-18T08:34:05;20.60;99.90
49855;DHT22;35752;52.164;21.244;2022-07-18T08:36:31;20.80;99.90
49855;DHT22;35752;52.164;21.244;2022-07-18T08:38:57;21.00;99.90
49855;DHT22;35752;52.164;21.244;2022-07-18T08:41:24;21.30;99.90
49855;DHT22;35752;52.164;21.244;2022-07-18T08:43:50;21.20;99.90
49855;DHT22;35752;52.164;21.244;2022-07-18T08:46:19;21.10;99.90
49855;DHT22;35752;52.164;21.244;2022-07-18T08:48:47;21.10;99.90
49855;DHT22;35752;52.164;21.244;2022-07-18T08:51:13;20.80;99.90
49855;DHT22;35752;52.164;21.244;2022-07-18T08:53:39;20.80;99.90
49855;DHT22;35752;52.164;21.244;2022-07-18T08:56:05;20.90;99.90
49855;DHT22;35752;52.164;21.244;2022-07-18T08:58:31;21.20;99.90
49855;DHT22;35752;52.164;21.244;2022-07-18T09:00:57;21.30;99.90
49855;DHT22;35752;52.164;21.244;2022-07-18T09:03:26;21.60;99.90
49855;DHT22;35752;52.164;21.244;2022-07-18T09:06:12;21.90;99.90
49855;DHT22;35752;52.164;21.244;2022-07-18T09:08:39;21.70;99.90
49855;DHT22;35752;52.164;21.244;2022-07-18T09:11:09;21.70;99.90
49855;DHT22;35752;52.164;21.244;2022-07-18T09:13:38;21.80;99.90
49855;DHT22;35752;52.164;21.244;2022-07-18T09:18:35;21.70;99.90
49855;DHT22;35752;52.164;21.244;2022-07-18T09:21:04;21.60;99.90
49855;DHT22;35752;52.164;21.244;2022-07-18T09:23:32;21.90;99.90
49855;DHT22;35752;52.164;21.244;2022-07-18T09:25:58;21.90;99.90
49855;DHT22;35752;52.164;21.244;2022-07-18T09:28:26;22.00;99.90
49855;DHT22;35752;52.164;21.244;2022-07-18T09:30:52;21.90;99.90
49855;DHT22;35752;52.164;21.244;2022-07-18T09:33:18;21.90;99.90
49855;DHT22;35752;52.164;21.244;2022-07-18T09:35:51;22.00;99.90
49855;DHT22;35752;52.164;21.244;2022-07-18T09:38:19;21.90;99.90
49855;DHT22;35752;52.164;21.244;2022-07-18T09:40:48;21.70;99.90
49855;DHT22;35752;52.164;21.244;2022-07-18T09:43:18;21.70;99.90
49855;DHT22;35752;52.164;21.244;2022-07-18T09:45:46;22.00;99.90
49855;DHT22;35752;52.164;21.244;2022-07-18T09:48:23;21.90;99.90
49855;DHT22;35752;52.164;21.244;2022-07-18T09:50:54;21.90;99.90
49855;DHT22;35752;52.164;21.244;2022-07-18T09:55:56;22.10;99.90
49855;DHT22;35752;52.164;21.244;2022-07-18T09:58:27;22.10;99.90
49855;DHT22;35752;52.164;21.244;2022-07-18T10:00:54;22.00;99.90
49855;DHT22;35752;52.164;21.244;2022-07-18T10:03:21;22.10;99.90
49855;DHT22;35752;52.164;21.244;2022-07-18T10:05:49;22.10;99.90
49855;DHT22;35752;52.164;21.244;2022-07-18T10:08:18;22.20;99.90
49855;DHT22;35752;52.164;21.244;2022-07-18T10:10:46;22.30;99.90
49855;DHT22;35752;52.164;21.244;2022-07-18T10:13:13;22.40;99.90
49855;DHT22;35752;52.164;21.244;2022-07-18T10:15:40;22.60;99.90
49855;DHT22;35752;52.164;21.244;2022-07-18T10:18:09;22.80;99.90
49855;DHT22;35752;52.164;21.244;2022-07-18T10:25:39;22.90;99.00
49855;DHT22;35752;52.164;21.244;2022-07-18T10:28:13;22.90;98.40
49855;DHT22;35752;52.164;21.244;2022-07-18T10:30:44;22.70;98.10
49855;DHT22;35752;52.164;21.244;2022-07-18T10:33:42;23.00;97.70
49855;DHT22;35752;52.164;21.244;2022-07-18T10:36:15;23.00;97.40
49855;DHT22;35752;52.164;21.244;2022-07-18T10:41:29;23.00;98.00
49855;DHT22;35752;52.164;21.244;2022-07-18T10:43:55;23.00;97.00
49855;DHT22;35752;52.164;21.244;2022-07-18T10:46:21;23.00;97.70
49855;DHT22;35752;52.164;21.244;2022-07-18T10:48:51;23.20;97.70
49855;DHT22;35752;52.164;21.244;2022-07-18T10:51:17;23.20;97.50
49855;DHT22;35752;52.164;21.244;2022-07-18T10:54:18;23.40;97.10
49855;DHT22;35752;52.164;21.244;2022-07-18T10:59:20;23.00;95.80
49855;DHT22;35752;52.164;21.244;2022-07-18T11:01:52;22.90;96.30
49855;DHT22;35752;52.164;21.244;2022-07-18T11:04:26;22.80;97.00
49855;DHT22;35752;52.164;21.244;2022-07-18T11:07:02;23.00;96.40
49855;DHT22;35752;52.164;21.244;2022-07-18T11:09:46;23.10;96.20
49855;DHT22;35752;52.164;21.244;2022-07-18T11:12:29;23.10;96.70
49855;DHT22;35752;52.164;21.244;2022-07-18T11:15:12;22.90;96.00
49855;DHT22;35752;52.164;21.244;2022-07-18T11:17:58;23.10;94.90
49855;DHT22;35752;52.164;21.244;2022-07-18T11:22:55;23.40;96.10
49855;DHT22;35752;52.164;21.244;2022-07-18T11:25:27;23.60;96.10
49855;DHT22;35752;52.164;21.244;2022-07-18T11:27:54;23.80;95.60
49855;DHT22;35752;52.164;21.244;2022-07-18T11:30:21;23.70;95.20
49855;DHT22;35752;52.164;21.244;2022-07-18T11:32:48;23.60;95.10
49855;DHT22;35752;52.164;21.244;2022-07-18T11:35:14;23.40;95.00
49855;DHT22;35752;52.164;21.244;2022-07-18T11:37:50;23.30;96.00
49855;DHT22;35752;52.164;21.244;2022-07-18T11:40:17;23.20;95.70
49855;DHT22;35752;52.164;21.244;2022-07-18T11:42:42;23.00;95.90
49855;DHT22;35752;52.164;21.244;2022-07-18T11:45:13;23.00;95.10
49855;DHT22;35752;52.164;21.244;2022-07-18T11:47:50;22.90;96.20
49855;DHT22;35752;52.164;21.244;2022-07-18T11:50:18;22.80;96.40
49855;DHT22;35752;52.164;21.244;2022-07-18T11:52:44;22.60;96.50
49855;DHT22;35752;52.164;21.244;2022-07-18T11:55:13;22.50;96.40
49855;DHT22;35752;52.164;21.244;2022-07-18T11:57:39;22.50;96.90
49855;DHT22;35752;52.164;21.244;2022-07-18T12:00:17;22.50;97.00
49855;DHT22;35752;52.164;21.244;2022-07-18T12:05:36;22.60;96.90
49855;DHT22;35752;52.164;21.244;2022-07-18T12:08:41;22.70;97.70
49855;DHT22;35752;52.164;21.244;2022-07-18T12:11:26;22.70;97.10
49855;DHT22;35752;52.164;21.244;2022-07-18T12:16:36;23.00;96.90
49855;DHT22;35752;52.164;21.244;2022-07-18T12:32:45;23.70;95.60
49855;DHT22;35752;52.164;21.244;2022-07-18T12:35:33;23.70;95.30
49855;DHT22;35752;52.164;21.244;2022-07-18T12:38:06;23.80;96.40
49855;DHT22;35752;52.164;21.244;2022-07-18T12:40:55;23.60;94.20
49855;DHT22;35752;52.164;21.244;2022-07-18T12:45:48;23.70;95.50
49855;DHT22;35752;52.164;21.244;2022-07-18T12:48:14;23.70;94.50
49855;DHT22;35752;52.164;21.244;2022-07-18T12:50:41;23.70;94.60
49855;DHT22;35752;52.164;21.244;2022-07-18T12:53:08;23.60;93.40
49855;DHT22;35752;52.164;21.244;2022-07-18T12:55:34;23.50;94.80
49855;DHT22;35752;52.164;21.244;2022-07-18T12:58:00;23.50;94.90
49855;DHT22;35752;52.164;21.244;2022-07-18T13:00:30;23.60;94.20
49855;DHT22;35752;52.164;21.244;2022-07-18T13:02:57;23.60;95.40
49855;DHT22;35752;52.164;21.244;2022-07-18T13:05:26;23.50;94.50
49855;DHT22;35752;52.164;21.244;2022-07-18T13:07:52;23.40;94.40
49855;DHT22;35752;52.164;21.244;2022-07-18T13:10:18;23.60;95.20
49855;DHT22;35752;52.164;21.244;2022-07-18T13:12:44;23.50;94.60
49855;DHT22;35752;52.164;21.244;2022-07-18T13:15:10;23.50;94.60
49855;DHT22;35752;52.164;21.244;2022-07-18T13:17:35;23.50;94.80
49855;DHT22;35752;52.164;21.244;2022-07-18T13:20:02;23.60;95.70
49855;DHT22;35752;52.164;21.244;2022-07-18T13:22:28;23.80;95.70
49855;DHT22;35752;52.164;21.244;2022-07-18T13:24:57;23.90;94.60
49855;DHT22;35752;52.164;21.244;2022-07-18T13:27:24;23.90;94.30
49855;DHT22;35752;52.164;21.244;2022-07-18T13:29:49;24.10;93.40
49855;DHT22;35752;52.164;21.244;2022-07-18T13:32:15;24.10;92.50
49855;DHT22;35752;52.164;21.244;2022-07-18T13:34:41;24.20;93.00
49855;DHT22;35752;52.164;21.244;2022-07-18T13:37:06;24.00;93.30
49855;DHT22;35752;52.164;21.244;2022-07-18T13:39:32;24.10;93.60
49855;DHT22;35752;52.164;21.244;2022-07-18T13:41:58;24.10;93.50
49855;DHT22;35752;52.164;21.244;2022-07-18T13:44:28;24.30;92.40
49855;DHT22;35752;52.164;21.244;2022-07-18T13:46:53;24.40;93.30
49855;DHT22;35752;52.164;21.244;2022-07-18T13:49:19;24.60;93.50
49855;DHT22;35752;52.164;21.244;2022-07-18T13:51:44;24.50;92.70
49855;DHT22;35752;52.164;21.244;2022-07-18T13:54:10;24.50;92.70
49855;DHT22;35752;52.164;21.244;2022-07-18T13:56:36;24.50;93.50
49855;DHT22;35752;52.164;21.244;2022-07-18T13:59:02;24.50;91.90
49855;DHT22;35752;52.164;21.244;2022-07-18T14:01:28;24.50;92.30
49855;DHT22;35752;52.164;21.244;2022-07-18T14:03:53;24.50;93.40
49855;DHT22;35752;52.164;21.244;2022-07-18T14:06:19;24.60;92.20
49855;DHT22;35752;52.164;21.244;2022-07-18T14:08:45;24.40;92.10
49855;DHT22;35752;52.164;21.244;2022-07-18T14:11:10;24.50;92.00
49855;DHT22;35752;52.164;21.244;2022-07-18T14:13:36;24.40;91.60
49855;DHT22;35752;52.164;21.244;2022-07-18T14:16:02;24.40;91.60
49855;DHT22;35752;52.164;21.244;2022-07-18T14:18:28;24.40;92.10
49855;DHT22;35752;52.164;21.244;2022-07-18T14:20:53;24.40;91.30
49855;DHT22;35752;52.164;21.244;2022-07-18T14:23:19;24.40;91.30
49855;DHT22;35752;52.164;21.244;2022-07-18T14:25:45;24.50;91.40
49855;DHT22;35752;52.164;21.244;2022-07-18T14:28:12;24.60;90.90
49855;DHT22;35752;52.164;21.244;2022-07-18T14:30:38;24.50;90.60
49855;DHT22;35752;52.164;21.244;2022-07-18T14:33:03;24.50;90.90
49855;DHT22;35752;52.164;21.244;2022-07-18T14:35:29;24.50;90.00
49855;DHT22;35752;52.164;21.244;2022-07-18T14:37:55;24.50;90.50
49855;DHT22;35752;52.164;21.244;2022-07-18T14:40:21;24.50;90.80
49855;DHT22;35752;52.164;21.244;2022-07-18T14:42:46;24.60;91.20
49855;DHT22;35752;52.164;21.244;2022-07-18T14:45:12;24.50;90.30
49855;DHT22;35752;52.164;21.244;2022-07-18T14:47:38;24.70;90.50
49855;DHT22;35752;52.164;21.244;2022-07-18T14:50:05;24.70;89.40
49855;DHT22;35752;52.164;21.244;2022-07-18T14:52:31;24.70;89.00
49855;DHT22;35752;52.164;21.244;2022-07-18T14:54:57;24.80;87.70
49855;DHT22;35752;52.164;21.244;2022-07-18T14:57:23;24.90;88.30
49855;DHT22;35752;52.164;21.244;2022-07-18T14:59:48;25.10;85.90
49855;DHT22;35752;52.164;21.244;2022-07-18T15:02:14;25.10;85.20
49855;DHT22;35752;52.164;21.244;2022-07-18T15:04:40;25.10;83.80
49855;DHT22;35752;52.164;21.244;2022-07-18T15:07:07;25.20;84.90
49855;DHT22;35752;52.164;21.244;2022-07-18T15:09:32;25.20;83.40
49855;DHT22;35752;52.164;21.244;2022-07-18T15:11:58;25.10;82.40
49855;DHT22;35752;52.164;21.244;2022-07-18T15:14:24;25.10;83.10
49855;DHT22;35752;52.164;21.244;2022-07-18T15:16:50;25.00;81.60
49855;DHT22;35752;52.164;21.244;2022-07-18T15:19:15;25.00;84.20
49855;DHT22;35752;52.164;21.244;2022-07-18T15:21:41;25.20;84.70
49855;DHT22;35752;52.164;21.244;2022-07-18T15:24:07;25.10;80.90
49855;DHT22;35752;52.164;21.244;2022-07-18T15:26:33;25.00;80.50
49855;DHT22;35752;52.164;21.244;2022-07-18T15:28:59;25.00;82.80
49855;DHT22;35752;52.164;21.244;2022-07-18T15:31:24;24.90;82.60
49855;DHT22;35752;52.164;21.244;2022-07-18T15:33:50;24.80;82.40
49855;DHT22;35752;52.164;21.244;2022-07-18T15:36:16;24.70;82.20
49855;DHT22;35752;52.164;21.244;2022-07-18T15:38:42;24.70;81.30
49855;DHT22;35752;52.164;21.244;2022-07-18T15:41:08;24.70;80.70
49855;DHT22;35752;52.164;21.244;2022-07-18T15:43:35;24.70;81.00
49855;DHT22;35752;52.164;21.244;2022-07-18T15:46:01;24.80;80.50
49855;DHT22;35752;52.164;21.244;2022-07-18T15:48:27;24.80;80.20
49855;DHT22;35752;52.164;21.244;2022-07-18T15:50:52;24.60;81.50
49855;DHT22;35752;52.164;21.244;2022-07-18T15:53:18;24.70;81.20
49855;DHT22;35752;52.164;21.244;2022-07-18T15:55:44;24.60;80.50